CFG6931 EDDF-OKKK
Flight info
| Callsign | CFG6931 |
|---|---|
| Flight time | 5h 7m |
| Altitude | 31000 |
| Route | SULUS4D/07C SULUS Z650 VEMUT DCT DITIS DCT BODZA DCT TEGRI DCT LAMIT DCT BULEN/N0458F330 L742 RIXEN UA17 BAG UW75 BAKIR UL601 TUNLA L601 KTN R785 RASLI P559 TRF V45 VATIM L550 NIDAP DCT SOROR |
| Aircraft | A321/M-SDE3FGHIRWY/LB1 |
Departure
| Time | 2026-05-08 17:49 |
|---|---|
| Airport | Frankfurt Main Airport (EDDF) |
Arrival
| Time | 2026-05-08 22:56 |
|---|---|
| Airport | Kuwait International Airport (OKKK) |
| Time | Latitude | Longitude | Altitude | Speed | Heading |
|---|---|---|---|---|---|
| 2026-05-08 17:05 | 50.04811 | 8.56583 | 356 ft | 0 kts | 340° |
| 2026-05-08 17:35 | 50.04806 | 8.56585 | 356 ft | 3 kts | 339° |
| 2026-05-08 17:35 | 50.04784 | 8.56599 | 358 ft | 3 kts | 339° |
| 2026-05-08 17:35 | 50.04766 | 8.56609 | 363 ft | 3 kts | 330° |
| 2026-05-08 17:36 | 50.04754 | 8.56628 | 360 ft | 3 kts | 262° |
| 2026-05-08 17:36 | 50.04763 | 8.56657 | 365 ft | 3 kts | 226° |
| 2026-05-08 17:36 | 50.04782 | 8.56676 | 360 ft | 3 kts | 198° |
| 2026-05-08 17:36 | 50.04794 | 8.56683 | 363 ft | 0 kts | 205° |
| 2026-05-08 17:39 | 50.04776 | 8.56670 | 359 ft | 6 kts | 205° |
| 2026-05-08 17:39 | 50.04731 | 8.56608 | 360 ft | 11 kts | 230° |
| 2026-05-08 17:39 | 50.04689 | 8.56517 | 357 ft | 9 kts | 241° |
| 2026-05-08 17:40 | 50.04666 | 8.56430 | 360 ft | 9 kts | 249° |
| 2026-05-08 17:40 | 50.04640 | 8.56321 | 361 ft | 13 kts | 249° |
| 2026-05-08 17:40 | 50.04605 | 8.56176 | 358 ft | 16 kts | 249° |
| 2026-05-08 17:40 | 50.04570 | 8.56029 | 362 ft | 14 kts | 249° |
| 2026-05-08 17:41 | 50.04507 | 8.55947 | 356 ft | 11 kts | 199° |
| 2026-05-08 17:41 | 50.04444 | 8.55917 | 361 ft | 8 kts | 196° |
| 2026-05-08 17:41 | 50.04394 | 8.55908 | 356 ft | 7 kts | 175° |
| 2026-05-08 17:41 | 50.04349 | 8.55926 | 358 ft | 7 kts | 161° |
| 2026-05-08 17:42 | 50.04322 | 8.55940 | 360 ft | 0 kts | 160° |
| 2026-05-08 17:42 | 50.04317 | 8.55943 | 359 ft | 3 kts | 160° |
| 2026-05-08 17:42 | 50.04286 | 8.55959 | 357 ft | 7 kts | 166° |
| 2026-05-08 17:42 | 50.04232 | 8.55931 | 358 ft | 10 kts | 212° |
| 2026-05-08 17:43 | 50.04154 | 8.55936 | 359 ft | 12 kts | 162° |
| 2026-05-08 17:43 | 50.04080 | 8.55973 | 351 ft | 10 kts | 176° |
| 2026-05-08 17:43 | 50.04037 | 8.55901 | 353 ft | 9 kts | 249° |
| 2026-05-08 17:43 | 50.04014 | 8.55806 | 354 ft | 10 kts | 249° |
| 2026-05-08 17:44 | 50.03990 | 8.55705 | 356 ft | 11 kts | 250° |
| 2026-05-08 17:44 | 50.03960 | 8.55575 | 355 ft | 15 kts | 250° |
| 2026-05-08 17:44 | 50.03921 | 8.55416 | 356 ft | 16 kts | 249° |
| 2026-05-08 17:44 | 50.03885 | 8.55266 | 351 ft | 14 kts | 249° |
| 2026-05-08 17:45 | 50.03854 | 8.55136 | 351 ft | 12 kts | 250° |
| 2026-05-08 17:45 | 50.03827 | 8.55020 | 351 ft | 11 kts | 250° |
| 2026-05-08 17:45 | 50.03802 | 8.54915 | 353 ft | 11 kts | 250° |
| 2026-05-08 17:45 | 50.03767 | 8.54770 | 354 ft | 18 kts | 249° |
| 2026-05-08 17:46 | 50.03714 | 8.54554 | 347 ft | 24 kts | 249° |
| 2026-05-08 17:46 | 50.03663 | 8.54342 | 352 ft | 17 kts | 239° |
| 2026-05-08 17:46 | 50.03574 | 8.54329 | 339 ft | 13 kts | 161° |
| 2026-05-08 17:46 | 50.03506 | 8.54366 | 350 ft | 9 kts | 160° |
| 2026-05-08 17:47 | 50.03492 | 8.54421 | 351 ft | 5 kts | 77° |
| 2026-05-08 17:47 | 50.03496 | 8.54440 | 347 ft | 0 kts | 71° |
| 2026-05-08 17:48 | 50.03525 | 8.54562 | 346 ft | 40 kts | 70° |
| 2026-05-08 17:48 | 50.03706 | 8.55307 | 348 ft | 104 kts | 70° |
| 2026-05-08 17:48 | 50.04019 | 8.56609 | 363 ft | 152 kts | 70° |
| 2026-05-08 17:48 | 50.04425 | 8.58317 | 550 ft | 172 kts | 66° |
| 2026-05-08 17:49 | 50.04832 | 8.59999 | 1294 ft | 166 kts | 69° |
| 2026-05-08 17:49 | 50.05209 | 8.61689 | 1815 ft | 167 kts | 70° |
| 2026-05-08 17:49 | 50.05602 | 8.63476 | 1976 ft | 183 kts | 69° |
| 2026-05-08 17:49 | 50.06035 | 8.65426 | 2131 ft | 198 kts | 70° |
| 2026-05-08 17:50 | 50.06503 | 8.67538 | 2258 ft | 216 kts | 70° |
| 2026-05-08 17:50 | 50.06989 | 8.69794 | 2690 ft | 222 kts | 75° |
| 2026-05-08 17:50 | 50.07146 | 8.72201 | 3150 ft | 231 kts | 92° |
| 2026-05-08 17:50 | 50.06877 | 8.74792 | 3354 ft | 251 kts | 99° |
| 2026-05-08 17:51 | 50.06556 | 8.77476 | 3863 ft | 258 kts | 99° |
| 2026-05-08 17:51 | 50.06226 | 8.80279 | 4463 ft | 262 kts | 99° |
| 2026-05-08 17:51 | 50.05904 | 8.83051 | 5051 ft | 266 kts | 99° |
| 2026-05-08 17:51 | 50.05767 | 8.85937 | 5602 ft | 271 kts | 88° |
| 2026-05-08 17:52 | 50.05827 | 8.88892 | 6154 ft | 276 kts | 89° |
| 2026-05-08 17:52 | 50.05885 | 8.91896 | 6700 ft | 280 kts | 89° |
| 2026-05-08 17:52 | 50.05996 | 8.98029 | 7793 ft | 286 kts | 89° |
| 2026-05-08 17:53 | 50.06047 | 9.01139 | 8336 ft | 290 kts | 89° |
| 2026-05-08 17:53 | 50.06094 | 9.04293 | 8878 ft | 293 kts | 89° |
| 2026-05-08 17:53 | 50.06143 | 9.07483 | 9421 ft | 296 kts | 89° |
| 2026-05-08 17:53 | 50.06191 | 9.10664 | 9950 ft | 300 kts | 89° |
| 2026-05-08 17:54 | 50.06239 | 9.13934 | 10332 ft | 309 kts | 89° |
| 2026-05-08 17:54 | 50.06287 | 9.17364 | 10452 ft | 326 kts | 89° |
| 2026-05-08 17:54 | 50.06343 | 9.20984 | 10582 ft | 342 kts | 89° |
| 2026-05-08 17:54 | 50.06399 | 9.24772 | 10701 ft | 358 kts | 89° |
| 2026-05-08 17:55 | 50.06454 | 9.28733 | 10822 ft | 374 kts | 89° |
| 2026-05-08 17:55 | 50.06508 | 9.32847 | 10949 ft | 388 kts | 89° |
| 2026-05-08 17:55 | 50.06563 | 9.37130 | 11075 ft | 401 kts | 89° |
| 2026-05-08 17:55 | 50.06617 | 9.41454 | 11386 ft | 407 kts | 89° |
| 2026-05-08 17:56 | 50.06669 | 9.45909 | 11833 ft | 410 kts | 89° |
| 2026-05-08 17:56 | 50.06721 | 9.50374 | 12292 ft | 412 kts | 89° |
| 2026-05-08 17:56 | 50.06772 | 9.54846 | 12737 ft | 414 kts | 89° |
| 2026-05-08 17:56 | 50.06822 | 9.59283 | 13172 ft | 417 kts | 89° |
| 2026-05-08 17:57 | 50.06870 | 9.63794 | 13608 ft | 419 kts | 89° |
| 2026-05-08 17:57 | 50.06918 | 9.68365 | 13973 ft | 423 kts | 89° |
| 2026-05-08 17:57 | 50.06965 | 9.72951 | 14341 ft | 425 kts | 89° |
| 2026-05-08 17:57 | 50.07011 | 9.77570 | 14727 ft | 427 kts | 89° |
| 2026-05-08 17:58 | 50.07053 | 9.82199 | 15106 ft | 429 kts | 89° |
| 2026-05-08 17:58 | 50.07094 | 9.86871 | 15484 ft | 431 kts | 89° |
| 2026-05-08 17:58 | 50.07133 | 9.91535 | 15868 ft | 433 kts | 89° |
| 2026-05-08 17:58 | 50.07166 | 9.96228 | 16234 ft | 435 kts | 90° |
| 2026-05-08 17:59 | 50.07196 | 10.01004 | 16608 ft | 437 kts | 90° |
| 2026-05-08 17:59 | 50.07228 | 10.05699 | 16965 ft | 439 kts | 90° |
| 2026-05-08 17:59 | 50.07260 | 10.10470 | 17338 ft | 442 kts | 89° |
| 2026-05-08 17:59 | 50.07290 | 10.15267 | 17680 ft | 444 kts | 90° |
| 2026-05-08 18:00 | 50.07315 | 10.20093 | 18024 ft | 447 kts | 90° |
| 2026-05-08 18:00 | 50.07371 | 10.29798 | 18689 ft | 451 kts | 90° |
| 2026-05-08 18:00 | 50.07398 | 10.34638 | 18993 ft | 453 kts | 90° |
| 2026-05-08 18:01 | 50.07424 | 10.39544 | 19293 ft | 455 kts | 90° |
| 2026-05-08 18:01 | 50.07448 | 10.44482 | 19597 ft | 457 kts | 90° |
| 2026-05-08 18:01 | 50.07467 | 10.49440 | 19893 ft | 459 kts | 90° |
| 2026-05-08 18:01 | 50.07480 | 10.54414 | 20192 ft | 461 kts | 90° |
| 2026-05-08 18:02 | 50.07489 | 10.59422 | 20463 ft | 464 kts | 90° |
| 2026-05-08 18:02 | 50.07495 | 10.62752 | 20644 ft | 466 kts | 90° |
| 2026-05-08 18:02 | 50.07462 | 10.69519 | 21013 ft | 468 kts | 94° |
| 2026-05-08 18:02 | 50.07042 | 10.74480 | 21291 ft | 469 kts | 103° |
| 2026-05-08 18:03 | 50.06167 | 10.79376 | 21567 ft | 470 kts | 109° |
| 2026-05-08 18:03 | 50.05144 | 10.84209 | 21849 ft | 472 kts | 109° |
| 2026-05-08 18:03 | 50.04114 | 10.89074 | 22121 ft | 474 kts | 109° |
| 2026-05-08 18:03 | 50.03080 | 10.93951 | 22389 ft | 476 kts | 109° |
| 2026-05-08 18:04 | 50.02041 | 10.98846 | 22658 ft | 477 kts | 109° |
| 2026-05-08 18:04 | 50.00996 | 11.03752 | 22907 ft | 480 kts | 109° |
| 2026-05-08 18:04 | 49.99944 | 11.08683 | 23179 ft | 481 kts | 109° |
| 2026-05-08 18:04 | 49.99366 | 11.11392 | 23332 ft | 482 kts | 109° |
| 2026-05-08 18:07 | 49.99252 | 11.11924 | 23359 ft | 483 kts | 109° |
| 2026-05-08 18:08 | 49.98647 | 11.14762 | 23525 ft | 483 kts | 109° |
| 2026-05-08 18:08 | 49.97588 | 11.19717 | 23893 ft | 482 kts | 109° |
| 2026-05-08 18:08 | 49.96541 | 11.24592 | 24224 ft | 481 kts | 109° |
| 2026-05-08 18:08 | 49.95490 | 11.29507 | 24544 ft | 480 kts | 109° |
| 2026-05-08 18:09 | 49.94444 | 11.34424 | 24886 ft | 479 kts | 109° |
| 2026-05-08 18:09 | 49.93402 | 11.39334 | 25212 ft | 478 kts | 109° |
| 2026-05-08 18:09 | 49.92389 | 11.44245 | 25541 ft | 477 kts | 108° |
| 2026-05-08 18:09 | 49.91447 | 11.49189 | 25849 ft | 477 kts | 107° |
| 2026-05-08 18:10 | 49.90559 | 11.54137 | 26173 ft | 477 kts | 106° |
| 2026-05-08 18:10 | 49.89691 | 11.59094 | 26483 ft | 476 kts | 106° |
| 2026-05-08 18:10 | 49.88823 | 11.64030 | 26807 ft | 475 kts | 107° |
| 2026-05-08 18:10 | 49.88074 | 11.69022 | 27126 ft | 475 kts | 100° |
| 2026-05-08 18:11 | 49.87630 | 11.74089 | 27435 ft | 474 kts | 98° |
| 2026-05-08 18:11 | 49.87197 | 11.79078 | 27755 ft | 473 kts | 99° |
| 2026-05-08 18:11 | 49.86747 | 11.84121 | 28075 ft | 472 kts | 99° |
| 2026-05-08 18:11 | 49.86291 | 11.89151 | 28362 ft | 472 kts | 99° |
| 2026-05-08 18:12 | 49.85830 | 11.94190 | 28647 ft | 471 kts | 99° |
| 2026-05-08 18:12 | 49.85371 | 11.99208 | 28946 ft | 471 kts | 99° |
| 2026-05-08 18:12 | 49.84912 | 12.04219 | 29246 ft | 470 kts | 99° |
| 2026-05-08 18:12 | 49.84458 | 12.09233 | 29551 ft | 469 kts | 99° |
| 2026-05-08 18:13 | 49.84003 | 12.14238 | 29828 ft | 468 kts | 99° |
| 2026-05-08 18:13 | 49.83550 | 12.19221 | 30135 ft | 468 kts | 99° |
| 2026-05-08 18:13 | 49.83095 | 12.24216 | 30372 ft | 467 kts | 99° |
| 2026-05-08 18:13 | 49.82642 | 12.29191 | 30599 ft | 466 kts | 99° |
| 2026-05-08 18:14 | 49.82184 | 12.34163 | 30800 ft | 467 kts | 99° |
| 2026-05-08 18:14 | 49.81730 | 12.39072 | 30984 ft | 467 kts | 99° |
| 2026-05-08 18:14 | 49.81168 | 12.44014 | 31096 ft | 467 kts | 106° |
| 2026-05-08 18:14 | 49.80151 | 12.48799 | 31122 ft | 468 kts | 115° |
| 2026-05-08 18:15 | 49.77243 | 12.57795 | 31120 ft | 468 kts | 119° |
| 2026-05-08 18:15 | 49.74295 | 12.66767 | 31120 ft | 468 kts | 119° |
| 2026-05-08 18:16 | 49.71353 | 12.75756 | 31108 ft | 470 kts | 120° |
| 2026-05-08 18:16 | 49.68397 | 12.84728 | 31120 ft | 473 kts | 120° |
| 2026-05-08 18:17 | 49.65396 | 12.93765 | 31117 ft | 473 kts | 120° |
| 2026-05-08 18:17 | 49.62389 | 13.02802 | 31116 ft | 473 kts | 120° |
| 2026-05-08 18:18 | 49.59377 | 13.11822 | 31118 ft | 473 kts | 120° |
| 2026-05-08 18:18 | 49.56347 | 13.20837 | 31108 ft | 473 kts | 120° |
| 2026-05-08 18:19 | 49.53315 | 13.29831 | 31108 ft | 473 kts | 120° |
| 2026-05-08 18:19 | 49.50283 | 13.38821 | 31108 ft | 473 kts | 120° |
| 2026-05-08 18:20 | 49.47262 | 13.47728 | 31111 ft | 473 kts | 120° |
| 2026-05-08 18:20 | 49.44212 | 13.56699 | 31093 ft | 475 kts | 121° |
| 2026-05-08 18:21 | 49.41137 | 13.65697 | 31088 ft | 478 kts | 122° |
| 2026-05-08 18:21 | 49.38034 | 13.74749 | 31102 ft | 479 kts | 122° |
| 2026-05-08 18:22 | 49.34943 | 13.83754 | 31088 ft | 481 kts | 122° |
| 2026-05-08 18:22 | 49.31820 | 13.92829 | 31086 ft | 482 kts | 123° |
| 2026-05-08 18:23 | 49.28672 | 14.01936 | 31089 ft | 484 kts | 123° |
| 2026-05-08 18:23 | 49.25512 | 14.11036 | 31094 ft | 485 kts | 123° |
| 2026-05-08 18:24 | 49.22334 | 14.20144 | 31101 ft | 485 kts | 123° |
| 2026-05-08 18:24 | 49.19143 | 14.29251 | 31108 ft | 486 kts | 123° |
| 2026-05-08 18:25 | 49.15949 | 14.38347 | 31107 ft | 486 kts | 123° |
| 2026-05-08 18:25 | 49.12767 | 14.47376 | 31105 ft | 486 kts | 123° |
| 2026-05-08 18:26 | 49.09564 | 14.56446 | 31110 ft | 486 kts | 123° |
| 2026-05-08 18:26 | 49.06350 | 14.65518 | 31107 ft | 486 kts | 123° |
| 2026-05-08 18:27 | 49.03673 | 14.73036 | 31094 ft | 486 kts | 123° |
| 2026-05-08 18:27 | 48.99904 | 14.83584 | 31089 ft | 485 kts | 123° |
| 2026-05-08 18:28 | 48.96693 | 14.92534 | 31109 ft | 484 kts | 123° |
| 2026-05-08 18:28 | 48.93466 | 15.01510 | 31114 ft | 484 kts | 123° |
| 2026-05-08 18:29 | 48.90229 | 15.10470 | 31099 ft | 483 kts | 123° |
| 2026-05-08 18:29 | 48.86937 | 15.19329 | 31096 ft | 482 kts | 125° |
| 2026-05-08 18:30 | 48.83559 | 15.28119 | 31095 ft | 482 kts | 125° |
| 2026-05-08 18:30 | 48.80191 | 15.36835 | 31097 ft | 482 kts | 125° |
| 2026-05-08 18:31 | 48.76818 | 15.45613 | 31082 ft | 482 kts | 125° |
| 2026-05-08 18:31 | 48.73439 | 15.54425 | 31073 ft | 483 kts | 125° |
| 2026-05-08 18:32 | 48.70052 | 15.63207 | 31074 ft | 484 kts | 125° |
| 2026-05-08 18:32 | 48.66648 | 15.71986 | 31075 ft | 484 kts | 125° |
| 2026-05-08 18:33 | 48.63237 | 15.80751 | 31077 ft | 483 kts | 125° |
| 2026-05-08 18:33 | 48.59856 | 15.89429 | 31101 ft | 481 kts | 125° |
| 2026-05-08 18:34 | 48.56463 | 15.98106 | 31101 ft | 480 kts | 125° |
| 2026-05-08 18:34 | 48.53058 | 16.06761 | 31099 ft | 479 kts | 125° |
| 2026-05-08 18:35 | 48.49660 | 16.15382 | 31093 ft | 478 kts | 125° |
| 2026-05-08 18:35 | 48.46254 | 16.23990 | 31084 ft | 477 kts | 125° |
| 2026-05-08 18:36 | 48.42881 | 16.32487 | 31092 ft | 476 kts | 125° |
| 2026-05-08 18:36 | 48.39487 | 16.41022 | 31087 ft | 475 kts | 125° |
| 2026-05-08 18:37 | 48.36085 | 16.49547 | 31088 ft | 475 kts | 126° |
| 2026-05-08 18:37 | 48.32683 | 16.58052 | 31068 ft | 475 kts | 126° |
| 2026-05-08 18:38 | 48.29307 | 16.66493 | 31049 ft | 475 kts | 126° |
| 2026-05-08 18:38 | 48.25885 | 16.74997 | 31056 ft | 476 kts | 126° |
| 2026-05-08 18:39 | 48.22467 | 16.83435 | 31057 ft | 476 kts | 126° |
| 2026-05-08 18:39 | 48.19038 | 16.91864 | 31048 ft | 477 kts | 126° |
| 2026-05-08 18:40 | 48.15587 | 17.00350 | 31051 ft | 477 kts | 126° |
| 2026-05-08 18:40 | 48.12130 | 17.08833 | 31050 ft | 477 kts | 126° |
| 2026-05-08 18:41 | 48.08671 | 17.17289 | 31052 ft | 477 kts | 126° |
| 2026-05-08 18:41 | 48.05223 | 17.25694 | 31047 ft | 477 kts | 126° |
| 2026-05-08 18:42 | 48.01723 | 17.34196 | 31036 ft | 478 kts | 126° |
| 2026-05-08 18:42 | 47.98252 | 17.42595 | 31040 ft | 479 kts | 126° |
| 2026-05-08 18:43 | 47.94744 | 17.51066 | 31035 ft | 479 kts | 126° |
| 2026-05-08 18:43 | 47.91245 | 17.59482 | 31047 ft | 479 kts | 126° |
| 2026-05-08 18:44 | 47.87736 | 17.67905 | 31040 ft | 479 kts | 126° |
| 2026-05-08 18:44 | 47.84216 | 17.76317 | 31041 ft | 479 kts | 126° |
| 2026-05-08 18:45 | 47.80677 | 17.84729 | 31046 ft | 479 kts | 126° |
| 2026-05-08 18:45 | 47.77137 | 17.93134 | 31049 ft | 479 kts | 126° |
| 2026-05-08 18:46 | 47.73618 | 18.01477 | 31040 ft | 480 kts | 127° |
| 2026-05-08 18:46 | 47.70071 | 18.09872 | 31045 ft | 480 kts | 127° |
| 2026-05-08 18:47 | 47.66516 | 18.18263 | 31050 ft | 480 kts | 127° |
| 2026-05-08 18:47 | 47.62941 | 18.26637 | 31048 ft | 480 kts | 127° |
| 2026-05-08 18:48 | 47.59965 | 18.33574 | 31034 ft | 480 kts | 127° |
| 2026-05-08 18:48 | 47.55808 | 18.43267 | 31042 ft | 479 kts | 127° |
| 2026-05-08 18:49 | 47.52126 | 18.51466 | 31049 ft | 478 kts | 129° |
| 2026-05-08 18:49 | 47.48976 | 18.58164 | 31052 ft | 477 kts | 129° |
| 2026-05-08 18:50 | 47.45173 | 18.66202 | 31042 ft | 477 kts | 129° |
| 2026-05-08 18:50 | 47.41400 | 18.74255 | 31051 ft | 476 kts | 129° |
| 2026-05-08 18:51 | 47.37650 | 18.82310 | 31056 ft | 476 kts | 129° |
| 2026-05-08 18:51 | 47.33893 | 18.90347 | 31039 ft | 476 kts | 129° |
| 2026-05-08 18:52 | 47.30120 | 18.98361 | 31018 ft | 475 kts | 129° |
| 2026-05-08 18:52 | 47.26371 | 19.06297 | 31034 ft | 476 kts | 129° |
| 2026-05-08 18:53 | 47.22593 | 19.14293 | 31021 ft | 476 kts | 129° |
| 2026-05-08 18:53 | 47.18812 | 19.22271 | 31032 ft | 476 kts | 129° |
| 2026-05-08 18:54 | 47.15018 | 19.30242 | 31030 ft | 476 kts | 129° |
| 2026-05-08 18:54 | 47.11222 | 19.38185 | 31020 ft | 476 kts | 129° |
| 2026-05-08 18:55 | 47.07408 | 19.46151 | 31303 ft | 478 kts | 129° |
| 2026-05-08 18:55 | 47.05501 | 19.50126 | 31514 ft | 477 kts | 129° |
| 2026-05-08 18:55 | 47.03615 | 19.54056 | 31755 ft | 476 kts | 129° |
| 2026-05-08 18:56 | 47.01713 | 19.58016 | 31985 ft | 475 kts | 129° |
| 2026-05-08 18:56 | 46.99811 | 19.61967 | 32213 ft | 474 kts | 130° |
| 2026-05-08 18:56 | 46.97916 | 19.65893 | 32412 ft | 474 kts | 129° |
| 2026-05-08 18:56 | 46.96006 | 19.69844 | 32630 ft | 473 kts | 129° |
| 2026-05-08 18:57 | 46.94105 | 19.73770 | 32846 ft | 472 kts | 130° |
| 2026-05-08 18:57 | 46.92204 | 19.77683 | 33008 ft | 472 kts | 130° |
| 2026-05-08 18:57 | 46.90301 | 19.81593 | 33030 ft | 471 kts | 129° |
| 2026-05-08 18:58 | 46.86517 | 19.89375 | 33030 ft | 470 kts | 129° |
| 2026-05-08 18:58 | 46.82728 | 19.97163 | 33023 ft | 471 kts | 129° |
| 2026-05-08 18:59 | 46.78945 | 20.04909 | 33033 ft | 472 kts | 129° |
| 2026-05-08 18:59 | 46.75122 | 20.12703 | 33032 ft | 472 kts | 129° |
| 2026-05-08 19:00 | 46.71299 | 20.20487 | 33031 ft | 472 kts | 129° |
| 2026-05-08 19:00 | 46.67461 | 20.28257 | 33035 ft | 472 kts | 130° |
| 2026-05-08 19:01 | 46.63623 | 20.36011 | 33032 ft | 472 kts | 130° |
| 2026-05-08 19:01 | 46.59812 | 20.43706 | 33032 ft | 472 kts | 130° |
| 2026-05-08 19:02 | 46.55966 | 20.51445 | 33026 ft | 472 kts | 130° |
| 2026-05-08 19:02 | 46.52116 | 20.59168 | 33019 ft | 471 kts | 130° |
| 2026-05-08 19:03 | 46.48267 | 20.66866 | 33029 ft | 471 kts | 130° |
| 2026-05-08 19:03 | 46.44429 | 20.74512 | 33033 ft | 471 kts | 130° |
| 2026-05-08 19:04 | 46.40573 | 20.82189 | 33034 ft | 470 kts | 130° |
| 2026-05-08 19:04 | 46.36722 | 20.89839 | 33018 ft | 470 kts | 130° |
| 2026-05-08 19:05 | 46.32887 | 20.97431 | 33032 ft | 470 kts | 130° |
| 2026-05-08 19:05 | 46.29000 | 21.05094 | 33036 ft | 469 kts | 130° |
| 2026-05-08 19:06 | 46.25141 | 21.12701 | 33037 ft | 470 kts | 129° |
| 2026-05-08 19:06 | 46.21349 | 21.20376 | 33020 ft | 470 kts | 129° |
| 2026-05-08 19:07 | 46.17590 | 21.28091 | 33025 ft | 469 kts | 128° |
| 2026-05-08 19:07 | 46.13825 | 21.35766 | 33032 ft | 469 kts | 129° |
| 2026-05-08 19:08 | 46.10035 | 21.43411 | 33031 ft | 469 kts | 129° |
| 2026-05-08 19:08 | 46.06238 | 21.51045 | 33032 ft | 468 kts | 129° |
| 2026-05-08 19:09 | 46.02471 | 21.58616 | 33027 ft | 468 kts | 129° |
| 2026-05-08 19:09 | 45.98681 | 21.66214 | 33033 ft | 467 kts | 129° |
| 2026-05-08 19:10 | 45.94878 | 21.73805 | 33040 ft | 467 kts | 129° |
| 2026-05-08 19:10 | 45.91076 | 21.81370 | 33039 ft | 467 kts | 129° |
| 2026-05-08 19:11 | 45.87273 | 21.88922 | 33027 ft | 467 kts | 129° |
| 2026-05-08 19:11 | 45.83472 | 21.96457 | 33050 ft | 466 kts | 129° |
| 2026-05-08 19:12 | 45.79695 | 22.03912 | 33042 ft | 465 kts | 129° |
| 2026-05-08 19:12 | 45.75893 | 22.11400 | 33044 ft | 465 kts | 129° |
| 2026-05-08 19:13 | 45.72101 | 22.18889 | 33048 ft | 464 kts | 128° |
| 2026-05-08 19:13 | 45.68369 | 22.26423 | 33045 ft | 464 kts | 128° |
| 2026-05-08 19:14 | 45.64657 | 22.33991 | 33048 ft | 464 kts | 128° |
| 2026-05-08 19:14 | 45.60941 | 22.41528 | 33053 ft | 464 kts | 128° |
| 2026-05-08 19:15 | 45.57206 | 22.49042 | 33040 ft | 464 kts | 128° |
| 2026-05-08 19:15 | 45.53460 | 22.56539 | 33051 ft | 464 kts | 128° |
| 2026-05-08 19:16 | 45.49718 | 22.64020 | 33057 ft | 464 kts | 128° |
| 2026-05-08 19:16 | 45.45974 | 22.71513 | 33050 ft | 464 kts | 128° |
| 2026-05-08 19:17 | 45.42229 | 22.78989 | 33060 ft | 464 kts | 128° |
| 2026-05-08 19:17 | 45.38477 | 22.86429 | 33062 ft | 463 kts | 128° |
| 2026-05-08 19:18 | 45.34710 | 22.93878 | 33061 ft | 463 kts | 128° |
| 2026-05-08 19:18 | 45.30951 | 23.01308 | 33056 ft | 463 kts | 128° |
| 2026-05-08 19:19 | 45.27217 | 23.08672 | 33056 ft | 463 kts | 128° |
| 2026-05-08 19:19 | 45.23442 | 23.16085 | 33058 ft | 463 kts | 128° |
| 2026-05-08 19:20 | 45.19661 | 23.23484 | 33047 ft | 463 kts | 128° |
| 2026-05-08 19:20 | 45.15883 | 23.30866 | 33041 ft | 463 kts | 128° |
| 2026-05-08 19:21 | 45.12102 | 23.38233 | 33048 ft | 461 kts | 128° |
| 2026-05-08 19:21 | 45.08333 | 23.45572 | 33050 ft | 460 kts | 128° |
| 2026-05-08 19:22 | 45.04597 | 23.52827 | 33048 ft | 460 kts | 128° |
| 2026-05-08 19:22 | 45.00820 | 23.60126 | 33030 ft | 459 kts | 128° |
| 2026-05-08 19:23 | 44.97052 | 23.67404 | 33029 ft | 459 kts | 128° |
| 2026-05-08 19:23 | 44.93279 | 23.74661 | 33020 ft | 459 kts | 128° |
| 2026-05-08 19:24 | 44.89501 | 23.81911 | 33018 ft | 459 kts | 128° |
| 2026-05-08 19:24 | 44.85722 | 23.89162 | 33014 ft | 458 kts | 128° |
| 2026-05-08 19:25 | 44.81936 | 23.96392 | 33012 ft | 458 kts | 128° |
| 2026-05-08 19:25 | 44.78144 | 24.03601 | 33014 ft | 458 kts | 128° |
| 2026-05-08 19:26 | 44.74353 | 24.10813 | 33014 ft | 458 kts | 128° |
| 2026-05-08 19:26 | 44.70565 | 24.17999 | 33009 ft | 457 kts | 128° |
| 2026-05-08 19:27 | 44.66777 | 24.25155 | 33013 ft | 457 kts | 128° |
| 2026-05-08 19:27 | 44.63002 | 24.32279 | 33008 ft | 457 kts | 128° |
| 2026-05-08 19:28 | 44.59207 | 24.39412 | 33008 ft | 456 kts | 128° |
| 2026-05-08 19:28 | 44.55406 | 24.46539 | 33001 ft | 456 kts | 128° |
| 2026-05-08 19:29 | 44.51604 | 24.53664 | 33003 ft | 456 kts | 128° |
| 2026-05-08 19:29 | 44.47803 | 24.60775 | 33003 ft | 456 kts | 128° |
| 2026-05-08 19:30 | 44.43991 | 24.67871 | 32999 ft | 456 kts | 128° |
| 2026-05-08 19:30 | 44.40173 | 24.74959 | 33001 ft | 456 kts | 128° |
| 2026-05-08 19:31 | 44.36386 | 24.81986 | 33006 ft | 455 kts | 128° |
| 2026-05-08 19:31 | 44.32569 | 24.89043 | 33008 ft | 455 kts | 128° |
| 2026-05-08 19:32 | 44.28751 | 24.96085 | 33001 ft | 455 kts | 128° |
| 2026-05-08 19:32 | 44.24933 | 25.03119 | 33002 ft | 455 kts | 129° |
| 2026-05-08 19:33 | 44.21112 | 25.10140 | 33005 ft | 454 kts | 129° |
| 2026-05-08 19:33 | 44.17286 | 25.17153 | 33013 ft | 454 kts | 129° |
| 2026-05-08 19:34 | 44.13482 | 25.24107 | 33003 ft | 454 kts | 129° |
| 2026-05-08 19:34 | 44.09649 | 25.31086 | 32999 ft | 454 kts | 129° |
| 2026-05-08 19:35 | 44.05806 | 25.38071 | 32994 ft | 454 kts | 129° |
| 2026-05-08 19:35 | 44.01971 | 25.45039 | 33003 ft | 454 kts | 129° |
| 2026-05-08 19:36 | 43.98129 | 25.52000 | 33009 ft | 454 kts | 129° |
| 2026-05-08 19:36 | 43.94294 | 25.58904 | 33007 ft | 454 kts | 129° |
| 2026-05-08 19:37 | 43.90439 | 25.65832 | 33007 ft | 454 kts | 129° |
| 2026-05-08 19:37 | 43.86579 | 25.72762 | 33001 ft | 454 kts | 129° |
| 2026-05-08 19:38 | 43.82719 | 25.79690 | 33000 ft | 454 kts | 129° |
| 2026-05-08 19:38 | 43.78856 | 25.86612 | 33011 ft | 454 kts | 129° |
| 2026-05-08 19:39 | 43.74993 | 25.93521 | 33007 ft | 454 kts | 129° |
| 2026-05-08 19:39 | 43.71123 | 26.00416 | 33019 ft | 454 kts | 129° |
| 2026-05-08 19:40 | 43.67267 | 26.07251 | 33013 ft | 454 kts | 129° |
| 2026-05-08 19:40 | 43.63382 | 26.14127 | 33014 ft | 454 kts | 129° |
| 2026-05-08 19:41 | 43.59496 | 26.20993 | 33011 ft | 454 kts | 129° |
| 2026-05-08 19:41 | 43.55608 | 26.27850 | 33011 ft | 454 kts | 129° |
| 2026-05-08 19:42 | 43.51714 | 26.34709 | 33014 ft | 454 kts | 129° |
| 2026-05-08 19:42 | 43.47820 | 26.41542 | 33017 ft | 454 kts | 129° |
| 2026-05-08 19:43 | 43.43942 | 26.48332 | 33030 ft | 454 kts | 129° |
| 2026-05-08 19:43 | 43.40037 | 26.55153 | 33033 ft | 454 kts | 129° |
| 2026-05-08 19:44 | 43.36130 | 26.61964 | 33029 ft | 453 kts | 129° |
| 2026-05-08 19:44 | 43.32225 | 26.68753 | 33044 ft | 453 kts | 129° |
| 2026-05-08 19:45 | 43.28320 | 26.75522 | 33055 ft | 452 kts | 129° |
| 2026-05-08 19:45 | 43.24438 | 26.82233 | 33051 ft | 451 kts | 129° |
| 2026-05-08 19:46 | 43.20541 | 26.88965 | 33049 ft | 450 kts | 129° |
| 2026-05-08 19:46 | 43.14700 | 26.99028 | 33054 ft | 449 kts | 130° |
| 2026-05-08 19:47 | 43.10800 | 27.05716 | 33056 ft | 449 kts | 130° |
| 2026-05-08 19:47 | 43.06905 | 27.12398 | 33047 ft | 449 kts | 130° |
| 2026-05-08 19:48 | 43.03001 | 27.19068 | 33050 ft | 449 kts | 130° |
| 2026-05-08 19:48 | 42.99089 | 27.25731 | 33062 ft | 449 kts | 130° |
| 2026-05-08 19:49 | 42.95186 | 27.32379 | 33070 ft | 448 kts | 130° |
| 2026-05-08 19:49 | 42.91307 | 27.38964 | 33064 ft | 448 kts | 130° |
| 2026-05-08 19:50 | 42.87400 | 27.45578 | 33068 ft | 448 kts | 130° |
| 2026-05-08 19:50 | 42.83490 | 27.52197 | 33072 ft | 448 kts | 130° |
| 2026-05-08 19:51 | 42.79574 | 27.58798 | 33067 ft | 448 kts | 130° |
| 2026-05-08 19:51 | 42.75655 | 27.65391 | 33072 ft | 448 kts | 130° |
| 2026-05-08 19:52 | 42.71728 | 27.71974 | 33074 ft | 448 kts | 130° |
| 2026-05-08 19:52 | 42.67815 | 27.78532 | 33077 ft | 448 kts | 130° |
| 2026-05-08 19:53 | 42.63870 | 27.85138 | 33083 ft | 448 kts | 130° |
| 2026-05-08 19:53 | 42.59966 | 27.91655 | 33086 ft | 448 kts | 130° |
| 2026-05-08 19:54 | 42.56031 | 27.98202 | 33091 ft | 447 kts | 130° |
| 2026-05-08 19:54 | 42.52094 | 28.04729 | 33091 ft | 447 kts | 130° |
| 2026-05-08 19:55 | 42.48152 | 28.11244 | 33080 ft | 447 kts | 130° |
| 2026-05-08 19:55 | 42.44235 | 28.17727 | 33080 ft | 448 kts | 130° |
| 2026-05-08 19:56 | 42.40286 | 28.24259 | 33079 ft | 448 kts | 130° |
| 2026-05-08 19:56 | 42.36377 | 28.30691 | 33086 ft | 448 kts | 130° |
| 2026-05-08 19:57 | 42.32413 | 28.37203 | 33065 ft | 450 kts | 131° |
| 2026-05-08 19:57 | 42.28424 | 28.43735 | 33086 ft | 450 kts | 130° |
| 2026-05-08 19:58 | 42.24469 | 28.50206 | 33106 ft | 450 kts | 130° |
| 2026-05-08 19:58 | 42.20486 | 28.56701 | 33108 ft | 449 kts | 131° |
| 2026-05-08 19:59 | 42.16501 | 28.63184 | 33110 ft | 449 kts | 131° |
| 2026-05-08 19:59 | 42.12520 | 28.69653 | 33107 ft | 448 kts | 131° |
| 2026-05-08 20:00 | 42.08564 | 28.76073 | 33102 ft | 448 kts | 128° |
| 2026-05-08 20:00 | 42.05165 | 28.83125 | 33076 ft | 450 kts | 123° |
| 2026-05-08 20:01 | 42.01825 | 28.90265 | 33081 ft | 452 kts | 124° |
| 2026-05-08 20:01 | 41.98463 | 28.97416 | 33084 ft | 453 kts | 124° |
| 2026-05-08 20:02 | 41.95090 | 29.04572 | 33079 ft | 453 kts | 124° |
| 2026-05-08 20:02 | 41.91709 | 29.11733 | 33074 ft | 455 kts | 124° |
| 2026-05-08 20:03 | 41.88334 | 29.18852 | 33088 ft | 455 kts | 124° |
| 2026-05-08 20:03 | 41.84940 | 29.26024 | 33094 ft | 455 kts | 124° |
| 2026-05-08 20:04 | 41.81541 | 29.33183 | 33081 ft | 456 kts | 124° |
| 2026-05-08 20:04 | 41.78700 | 29.39145 | 33083 ft | 456 kts | 124° |
| 2026-05-08 20:05 | 41.74718 | 29.47469 | 33089 ft | 457 kts | 124° |
| 2026-05-08 20:05 | 41.71279 | 29.54637 | 33095 ft | 457 kts | 124° |
| 2026-05-08 20:06 | 41.68416 | 29.60593 | 33082 ft | 458 kts | 124° |
| 2026-05-08 20:06 | 41.64958 | 29.67772 | 33085 ft | 460 kts | 124° |
| 2026-05-08 20:07 | 41.61505 | 29.74942 | 33090 ft | 460 kts | 124° |
| 2026-05-08 20:07 | 41.57470 | 29.83289 | 33075 ft | 461 kts | 124° |
| 2026-05-08 20:08 | 41.54571 | 29.89280 | 33080 ft | 462 kts | 124° |
| 2026-05-08 20:08 | 41.51073 | 29.96492 | 33082 ft | 463 kts | 124° |
| 2026-05-08 20:09 | 41.47558 | 30.03708 | 33090 ft | 464 kts | 125° |
| 2026-05-08 20:09 | 41.43459 | 30.12086 | 33080 ft | 465 kts | 124° |
| 2026-05-08 20:10 | 41.40487 | 30.18144 | 33082 ft | 466 kts | 125° |
| 2026-05-08 20:10 | 41.36969 | 30.25334 | 33088 ft | 467 kts | 125° |
| 2026-05-08 20:11 | 41.33411 | 30.32569 | 33075 ft | 468 kts | 125° |
| 2026-05-08 20:11 | 41.29838 | 30.39812 | 33079 ft | 469 kts | 125° |
| 2026-05-08 20:12 | 41.26252 | 30.47074 | 33086 ft | 470 kts | 125° |
| 2026-05-08 20:12 | 41.22689 | 30.54281 | 33087 ft | 470 kts | 125° |
| 2026-05-08 20:13 | 41.19085 | 30.61538 | 33083 ft | 471 kts | 125° |
| 2026-05-08 20:13 | 41.15469 | 30.68813 | 33082 ft | 472 kts | 125° |
| 2026-05-08 20:14 | 41.11838 | 30.76090 | 33091 ft | 473 kts | 125° |
| 2026-05-08 20:14 | 41.08229 | 30.83312 | 33083 ft | 474 kts | 125° |
| 2026-05-08 20:15 | 41.04584 | 30.90606 | 33095 ft | 475 kts | 125° |
| 2026-05-08 20:15 | 41.00925 | 30.97897 | 33100 ft | 476 kts | 125° |
| 2026-05-08 20:16 | 40.97268 | 31.05200 | 33112 ft | 476 kts | 124° |
| 2026-05-08 20:16 | 40.93645 | 31.12541 | 33117 ft | 477 kts | 125° |
| 2026-05-08 20:17 | 40.90051 | 31.19827 | 33119 ft | 477 kts | 125° |
| 2026-05-08 20:17 | 40.86408 | 31.27164 | 33130 ft | 478 kts | 125° |
| 2026-05-08 20:18 | 40.82753 | 31.34511 | 33126 ft | 479 kts | 125° |
| 2026-05-08 20:18 | 40.79081 | 31.41867 | 33140 ft | 480 kts | 125° |
| 2026-05-08 20:19 | 40.75423 | 31.49161 | 33153 ft | 480 kts | 125° |
| 2026-05-08 20:19 | 40.71739 | 31.56504 | 33154 ft | 481 kts | 125° |
| 2026-05-08 20:20 | 40.68044 | 31.63862 | 33161 ft | 481 kts | 125° |
| 2026-05-08 20:20 | 40.64343 | 31.71207 | 33172 ft | 482 kts | 125° |
| 2026-05-08 20:21 | 40.60649 | 31.78496 | 33174 ft | 482 kts | 125° |
| 2026-05-08 20:21 | 40.56926 | 31.85832 | 33177 ft | 482 kts | 125° |
| 2026-05-08 20:22 | 40.53168 | 31.93148 | 33183 ft | 483 kts | 126° |
| 2026-05-08 20:22 | 40.49385 | 32.00429 | 33197 ft | 485 kts | 126° |
| 2026-05-08 20:23 | 40.45601 | 32.07707 | 33206 ft | 486 kts | 126° |
| 2026-05-08 20:23 | 40.41793 | 32.15034 | 33202 ft | 486 kts | 126° |
| 2026-05-08 20:24 | 40.37981 | 32.22348 | 33188 ft | 486 kts | 126° |
| 2026-05-08 20:24 | 40.34156 | 32.29645 | 33186 ft | 486 kts | 126° |
| 2026-05-08 20:25 | 40.30318 | 32.36948 | 33191 ft | 487 kts | 126° |
| 2026-05-08 20:25 | 40.26504 | 32.44206 | 33212 ft | 487 kts | 126° |
| 2026-05-08 20:26 | 40.22650 | 32.51510 | 33192 ft | 488 kts | 126° |
| 2026-05-08 20:26 | 40.18790 | 32.58809 | 33190 ft | 488 kts | 126° |
| 2026-05-08 20:27 | 40.14917 | 32.66114 | 33193 ft | 489 kts | 126° |
| 2026-05-08 20:27 | 40.11033 | 32.73413 | 33189 ft | 490 kts | 126° |
| 2026-05-08 20:28 | 40.06842 | 32.80317 | 33190 ft | 487 kts | 139° |
| 2026-05-08 20:28 | 40.01457 | 32.85550 | 33195 ft | 482 kts | 151° |
| 2026-05-08 20:29 | 39.95760 | 32.90203 | 33194 ft | 484 kts | 150° |
| 2026-05-08 20:29 | 39.90096 | 32.94844 | 33191 ft | 485 kts | 150° |
| 2026-05-08 20:30 | 39.84387 | 32.99521 | 33195 ft | 486 kts | 150° |
| 2026-05-08 20:30 | 39.78661 | 33.04201 | 33198 ft | 486 kts | 150° |
| 2026-05-08 20:31 | 39.72939 | 33.08863 | 33211 ft | 486 kts | 150° |
| 2026-05-08 20:31 | 39.67202 | 33.13527 | 33206 ft | 486 kts | 151° |
| 2026-05-08 20:32 | 39.61502 | 33.18143 | 33203 ft | 486 kts | 151° |
| 2026-05-08 20:32 | 39.55752 | 33.22794 | 33204 ft | 487 kts | 150° |
| 2026-05-08 20:33 | 39.50009 | 33.27429 | 33202 ft | 487 kts | 151° |
| 2026-05-08 20:33 | 39.44252 | 33.32057 | 33200 ft | 487 kts | 151° |
| 2026-05-08 20:34 | 39.38413 | 33.36342 | 33200 ft | 485 kts | 155° |
| 2026-05-08 20:35 | 39.29589 | 33.42794 | 33200 ft | 487 kts | 151° |
| 2026-05-08 20:35 | 39.23851 | 33.47383 | 33190 ft | 487 kts | 150° |
| 2026-05-08 20:36 | 39.18097 | 33.51991 | 33197 ft | 487 kts | 151° |
| 2026-05-08 20:36 | 39.12342 | 33.56502 | 33197 ft | 487 kts | 151° |
| 2026-05-08 20:37 | 39.06543 | 33.61005 | 33200 ft | 487 kts | 152° |
| 2026-05-08 20:37 | 39.00736 | 33.65510 | 33189 ft | 487 kts | 152° |
| 2026-05-08 20:38 | 38.94929 | 33.70016 | 33190 ft | 488 kts | 151° |
| 2026-05-08 20:38 | 38.89155 | 33.74495 | 33192 ft | 488 kts | 151° |
| 2026-05-08 20:39 | 38.83336 | 33.78994 | 33194 ft | 489 kts | 152° |
| 2026-05-08 20:39 | 38.77509 | 33.83492 | 33204 ft | 489 kts | 152° |
| 2026-05-08 20:40 | 38.71679 | 33.87991 | 33199 ft | 489 kts | 152° |
| 2026-05-08 20:40 | 38.65880 | 33.92457 | 33208 ft | 490 kts | 152° |
| 2026-05-08 20:41 | 38.60043 | 33.96928 | 33211 ft | 490 kts | 152° |
| 2026-05-08 20:41 | 38.54190 | 34.01405 | 33215 ft | 491 kts | 152° |
| 2026-05-08 20:42 | 38.48353 | 34.05867 | 33195 ft | 491 kts | 152° |
| 2026-05-08 20:42 | 38.42485 | 34.10340 | 33202 ft | 491 kts | 152° |
| 2026-05-08 20:43 | 38.36648 | 34.14762 | 33216 ft | 492 kts | 152° |
| 2026-05-08 20:43 | 38.30774 | 34.19201 | 33219 ft | 492 kts | 152° |
| 2026-05-08 20:44 | 38.24891 | 34.23641 | 33216 ft | 492 kts | 152° |
| 2026-05-08 20:44 | 38.18998 | 34.28096 | 33204 ft | 494 kts | 152° |
| 2026-05-08 20:45 | 38.13115 | 34.32529 | 33460 ft | 495 kts | 152° |
| 2026-05-08 20:45 | 38.10155 | 34.34753 | 33722 ft | 494 kts | 153° |
| 2026-05-08 20:45 | 38.07201 | 34.36972 | 33988 ft | 493 kts | 153° |
| 2026-05-08 20:45 | 38.04246 | 34.39191 | 34181 ft | 494 kts | 153° |
| 2026-05-08 20:46 | 38.01296 | 34.41402 | 34226 ft | 497 kts | 153° |
| 2026-05-08 20:46 | 37.95325 | 34.45869 | 34114 ft | 499 kts | 153° |
| 2026-05-08 20:47 | 37.89333 | 34.50350 | 34115 ft | 501 kts | 153° |
| 2026-05-08 20:47 | 37.83347 | 34.54882 | 34112 ft | 502 kts | 152° |
| 2026-05-08 20:48 | 37.77447 | 34.59403 | 34125 ft | 502 kts | 152° |
| 2026-05-08 20:48 | 37.71469 | 34.63972 | 34136 ft | 502 kts | 152° |
| 2026-05-08 20:49 | 37.65481 | 34.68511 | 34167 ft | 502 kts | 152° |
| 2026-05-08 20:49 | 37.59506 | 34.73024 | 34217 ft | 502 kts | 153° |
| 2026-05-08 20:50 | 37.53551 | 34.77455 | 34197 ft | 502 kts | 153° |
| 2026-05-08 20:50 | 37.47523 | 34.81891 | 34204 ft | 502 kts | 153° |
| 2026-05-08 20:51 | 37.41491 | 34.86329 | 34164 ft | 503 kts | 153° |
| 2026-05-08 20:51 | 37.35452 | 34.90765 | 34170 ft | 503 kts | 153° |
| 2026-05-08 20:52 | 37.29408 | 34.95212 | 34151 ft | 504 kts | 153° |
| 2026-05-08 20:52 | 37.23359 | 34.99654 | 34147 ft | 504 kts | 153° |
| 2026-05-08 20:53 | 37.17334 | 35.04068 | 34119 ft | 505 kts | 153° |
| 2026-05-08 20:53 | 37.11268 | 35.08505 | 34098 ft | 506 kts | 153° |
| 2026-05-08 20:54 | 37.05187 | 35.12948 | 34079 ft | 506 kts | 153° |
| 2026-05-08 20:54 | 36.99103 | 35.17379 | 33748 ft | 505 kts | 153° |
| 2026-05-08 20:54 | 36.96067 | 35.19579 | 33215 ft | 502 kts | 153° |
| 2026-05-08 20:55 | 36.93087 | 35.21743 | 33023 ft | 503 kts | 152° |
| 2026-05-08 20:55 | 36.87103 | 35.26371 | 33080 ft | 508 kts | 150° |
| 2026-05-08 20:56 | 36.81161 | 35.31176 | 33083 ft | 509 kts | 150° |
| 2026-05-08 20:56 | 36.75201 | 35.35951 | 33074 ft | 505 kts | 150° |
| 2026-05-08 20:57 | 36.69232 | 35.40634 | 33086 ft | 509 kts | 151° |
| 2026-05-08 20:57 | 36.63240 | 35.45300 | 33079 ft | 509 kts | 151° |
| 2026-05-08 20:58 | 36.57273 | 35.49964 | 33083 ft | 510 kts | 150° |
| 2026-05-08 20:58 | 36.51263 | 35.54664 | 33430 ft | 510 kts | 150° |
| 2026-05-08 20:58 | 36.48270 | 35.57006 | 33698 ft | 509 kts | 150° |
| 2026-05-08 20:59 | 36.45271 | 35.59348 | 33962 ft | 508 kts | 150° |
| 2026-05-08 20:59 | 36.42272 | 35.61684 | 34083 ft | 511 kts | 150° |
| 2026-05-08 20:59 | 36.39256 | 35.64031 | 34084 ft | 511 kts | 150° |
| 2026-05-08 21:00 | 36.33265 | 35.68687 | 34094 ft | 513 kts | 151° |
| 2026-05-08 21:00 | 36.27209 | 35.73391 | 34096 ft | 513 kts | 151° |
| 2026-05-08 21:01 | 36.21154 | 35.78080 | 34101 ft | 513 kts | 151° |
| 2026-05-08 21:01 | 36.15097 | 35.82757 | 34099 ft | 513 kts | 151° |
| 2026-05-08 21:02 | 36.09042 | 35.87427 | 34085 ft | 513 kts | 151° |
| 2026-05-08 21:02 | 36.03024 | 35.92067 | 34089 ft | 513 kts | 151° |
| 2026-05-08 21:03 | 35.96964 | 35.96724 | 34098 ft | 513 kts | 151° |
| 2026-05-08 21:03 | 35.90897 | 36.01371 | 34099 ft | 513 kts | 151° |
| 2026-05-08 21:04 | 35.84818 | 36.05965 | 34102 ft | 512 kts | 152° |
| 2026-05-08 21:04 | 35.78664 | 36.10385 | 34088 ft | 512 kts | 153° |
| 2026-05-08 21:05 | 35.72524 | 36.14716 | 34094 ft | 512 kts | 153° |
| 2026-05-08 21:05 | 35.66350 | 36.19110 | 34098 ft | 513 kts | 153° |
| 2026-05-08 21:06 | 35.60205 | 36.23520 | 34094 ft | 512 kts | 153° |
| 2026-05-08 21:06 | 35.54056 | 36.27933 | 34088 ft | 513 kts | 153° |
| 2026-05-08 21:07 | 35.47927 | 36.32325 | 34094 ft | 513 kts | 152° |
| 2026-05-08 21:07 | 35.41822 | 36.36882 | 34097 ft | 514 kts | 151° |
| 2026-05-08 21:08 | 35.35754 | 36.41535 | 34098 ft | 515 kts | 150° |
| 2026-05-08 21:08 | 35.29676 | 36.46167 | 34106 ft | 515 kts | 151° |
| 2026-05-08 21:09 | 35.24605 | 36.49988 | 34088 ft | 515 kts | 151° |
| 2026-05-08 21:11 | 34.99369 | 36.68850 | 34099 ft | 517 kts | 151° |
| 2026-05-08 21:11 | 34.93216 | 36.73435 | 34116 ft | 518 kts | 151° |
| 2026-05-08 21:12 | 34.87053 | 36.78016 | 34105 ft | 519 kts | 151° |
| 2026-05-08 21:12 | 34.80897 | 36.82596 | 34124 ft | 520 kts | 151° |
| 2026-05-08 21:13 | 34.74714 | 36.87175 | 34123 ft | 520 kts | 151° |
| 2026-05-08 21:13 | 34.68532 | 36.91750 | 34117 ft | 520 kts | 151° |
| 2026-05-08 21:14 | 34.62387 | 36.96296 | 34125 ft | 521 kts | 151° |
| 2026-05-08 21:14 | 34.56195 | 37.00859 | 34132 ft | 521 kts | 151° |
| 2026-05-08 21:15 | 34.49998 | 37.05420 | 34139 ft | 521 kts | 151° |
| 2026-05-08 21:15 | 34.43806 | 37.09975 | 34143 ft | 521 kts | 151° |
| 2026-05-08 21:16 | 34.37607 | 37.14522 | 34138 ft | 521 kts | 151° |
| 2026-05-08 21:16 | 34.31447 | 37.19028 | 34138 ft | 521 kts | 151° |
| 2026-05-08 21:17 | 34.25243 | 37.23560 | 34143 ft | 521 kts | 151° |
| 2026-05-08 21:17 | 34.19006 | 37.28000 | 34141 ft | 520 kts | 154° |
| 2026-05-08 21:18 | 34.12561 | 37.31934 | 34118 ft | 519 kts | 158° |
| 2026-05-08 21:18 | 34.06068 | 37.35593 | 34109 ft | 519 kts | 158° |
| 2026-05-08 21:19 | 33.99562 | 37.39352 | 34109 ft | 519 kts | 156° |
| 2026-05-08 21:19 | 33.93089 | 37.43228 | 34108 ft | 520 kts | 156° |
| 2026-05-08 21:20 | 33.86617 | 37.47119 | 34098 ft | 520 kts | 156° |
| 2026-05-08 21:20 | 33.80155 | 37.50967 | 34101 ft | 520 kts | 156° |
| 2026-05-08 21:21 | 33.73711 | 37.54768 | 34093 ft | 520 kts | 156° |
| 2026-05-08 21:21 | 33.67222 | 37.58586 | 34096 ft | 520 kts | 156° |
| 2026-05-08 21:22 | 33.60731 | 37.62416 | 34070 ft | 520 kts | 156° |
| 2026-05-08 21:22 | 33.54236 | 37.66257 | 34079 ft | 520 kts | 156° |
| 2026-05-08 21:23 | 33.47717 | 37.70032 | 34076 ft | 520 kts | 157° |
| 2026-05-08 21:23 | 33.41184 | 37.73742 | 34075 ft | 520 kts | 157° |
| 2026-05-08 21:24 | 33.34699 | 37.77415 | 34062 ft | 519 kts | 156° |
| 2026-05-08 21:24 | 33.28172 | 37.81131 | 34057 ft | 519 kts | 156° |
| 2026-05-08 21:25 | 33.21648 | 37.84841 | 34053 ft | 519 kts | 156° |
| 2026-05-08 21:25 | 33.15118 | 37.88544 | 34055 ft | 519 kts | 156° |
| 2026-05-08 21:26 | 33.08637 | 37.92218 | 34040 ft | 520 kts | 156° |
| 2026-05-08 21:26 | 33.02108 | 37.95914 | 34050 ft | 520 kts | 156° |
| 2026-05-08 21:27 | 32.95573 | 37.99609 | 34050 ft | 520 kts | 156° |
| 2026-05-08 21:27 | 32.89073 | 38.03354 | 34057 ft | 520 kts | 155° |
| 2026-05-08 21:28 | 32.82647 | 38.07196 | 34045 ft | 521 kts | 154° |
| 2026-05-08 21:28 | 32.76184 | 38.11092 | 34060 ft | 521 kts | 155° |
| 2026-05-08 21:29 | 32.69706 | 38.14954 | 34066 ft | 521 kts | 155° |
| 2026-05-08 21:29 | 32.63225 | 38.18785 | 34066 ft | 520 kts | 155° |
| 2026-05-08 21:30 | 32.56790 | 38.22579 | 34053 ft | 519 kts | 155° |
| 2026-05-08 21:30 | 32.50327 | 38.26393 | 34066 ft | 519 kts | 155° |
| 2026-05-08 21:31 | 32.43872 | 38.30198 | 34083 ft | 518 kts | 155° |
| 2026-05-08 21:31 | 32.37419 | 38.33998 | 34070 ft | 518 kts | 155° |
| 2026-05-08 21:32 | 32.30969 | 38.37786 | 34076 ft | 517 kts | 155° |
| 2026-05-08 21:32 | 32.24525 | 38.41567 | 34082 ft | 517 kts | 154° |
| 2026-05-08 21:33 | 32.18137 | 38.45313 | 34085 ft | 516 kts | 154° |
| 2026-05-08 21:33 | 32.11703 | 38.49079 | 34093 ft | 516 kts | 154° |
| 2026-05-08 21:34 | 32.05279 | 38.52828 | 34092 ft | 515 kts | 155° |
| 2026-05-08 21:34 | 31.98853 | 38.56574 | 34079 ft | 515 kts | 154° |
| 2026-05-08 21:35 | 31.92469 | 38.60287 | 34092 ft | 515 kts | 154° |
| 2026-05-08 21:35 | 31.86048 | 38.64021 | 34099 ft | 515 kts | 154° |
| 2026-05-08 21:36 | 31.79627 | 38.67754 | 34122 ft | 515 kts | 154° |
| 2026-05-08 21:36 | 31.73512 | 38.72079 | 34112 ft | 514 kts | 139° |
| 2026-05-08 21:37 | 31.68787 | 38.78208 | 34095 ft | 508 kts | 120° |
| 2026-05-08 21:37 | 31.65778 | 38.85601 | 34092 ft | 500 kts | 106° |
| 2026-05-08 21:38 | 31.63345 | 38.93254 | 34107 ft | 501 kts | 106° |
| 2026-05-08 21:38 | 31.60887 | 39.00912 | 34105 ft | 501 kts | 106° |
| 2026-05-08 21:39 | 31.58429 | 39.08566 | 34097 ft | 502 kts | 106° |
| 2026-05-08 21:39 | 31.55970 | 39.16222 | 34116 ft | 502 kts | 105° |
| 2026-05-08 21:40 | 31.53518 | 39.23832 | 34116 ft | 502 kts | 105° |
| 2026-05-08 21:40 | 31.51047 | 39.31477 | 34116 ft | 502 kts | 105° |
| 2026-05-08 21:41 | 31.47327 | 39.42951 | 34127 ft | 502 kts | 105° |
| 2026-05-08 21:41 | 31.44844 | 39.50590 | 34129 ft | 501 kts | 105° |
| 2026-05-08 21:42 | 31.42373 | 39.58162 | 34121 ft | 501 kts | 105° |
| 2026-05-08 21:42 | 31.39906 | 39.65781 | 34129 ft | 500 kts | 105° |
| 2026-05-08 21:43 | 31.37454 | 39.73395 | 34133 ft | 500 kts | 105° |
| 2026-05-08 21:43 | 31.34992 | 39.80996 | 34150 ft | 499 kts | 105° |
| 2026-05-08 21:44 | 31.32540 | 39.88527 | 34155 ft | 499 kts | 105° |
| 2026-05-08 21:44 | 31.30073 | 39.96101 | 34144 ft | 498 kts | 105° |
| 2026-05-08 21:45 | 31.27600 | 40.03657 | 34157 ft | 498 kts | 105° |
| 2026-05-08 21:45 | 31.25123 | 40.11218 | 34148 ft | 498 kts | 105° |
| 2026-05-08 21:46 | 31.22643 | 40.18771 | 34143 ft | 498 kts | 105° |
| 2026-05-08 21:46 | 31.20177 | 40.26268 | 34147 ft | 498 kts | 105° |
| 2026-05-08 21:47 | 31.17690 | 40.33812 | 34137 ft | 498 kts | 105° |
| 2026-05-08 21:47 | 31.15192 | 40.41363 | 34130 ft | 498 kts | 105° |
| 2026-05-08 21:48 | 31.12692 | 40.48899 | 34140 ft | 498 kts | 106° |
| 2026-05-08 21:48 | 31.10200 | 40.56396 | 34134 ft | 499 kts | 106° |
| 2026-05-08 21:49 | 31.07689 | 40.63932 | 34134 ft | 499 kts | 106° |
| 2026-05-08 21:49 | 31.05178 | 40.71473 | 34127 ft | 498 kts | 106° |
| 2026-05-08 21:50 | 31.02665 | 40.79007 | 34117 ft | 498 kts | 106° |
| 2026-05-08 21:50 | 31.00145 | 40.86529 | 34115 ft | 499 kts | 106° |
| 2026-05-08 21:51 | 30.97627 | 40.94005 | 34128 ft | 498 kts | 108° |
| 2026-05-08 21:51 | 30.95100 | 41.01511 | 34128 ft | 497 kts | 108° |
| 2026-05-08 21:52 | 30.92573 | 41.09013 | 34123 ft | 497 kts | 108° |
| 2026-05-08 21:52 | 30.89240 | 41.16082 | 34129 ft | 501 kts | 126° |
| 2026-05-08 21:53 | 30.84670 | 41.22190 | 34131 ft | 500 kts | 131° |
| 2026-05-08 21:53 | 30.80070 | 41.28182 | 34118 ft | 499 kts | 131° |
| 2026-05-08 21:54 | 30.77903 | 41.31322 | 34112 ft | 497 kts | 120° |
| 2026-05-08 21:54 | 30.76112 | 41.34754 | 34112 ft | 496 kts | 119° |
| 2026-05-08 21:54 | 30.72567 | 41.41616 | 34120 ft | 495 kts | 120° |
| 2026-05-08 21:55 | 30.69020 | 41.48478 | 34111 ft | 495 kts | 120° |
| 2026-05-08 21:56 | 30.63726 | 41.58695 | 34108 ft | 494 kts | 121° |
| 2026-05-08 21:56 | 30.60181 | 41.65507 | 34106 ft | 492 kts | 121° |
| 2026-05-08 21:57 | 30.56638 | 41.72302 | 34101 ft | 491 kts | 121° |
| 2026-05-08 21:57 | 30.53105 | 41.79081 | 34098 ft | 491 kts | 122° |
| 2026-05-08 21:58 | 30.49597 | 41.85791 | 34103 ft | 489 kts | 122° |
| 2026-05-08 21:58 | 30.46068 | 41.92527 | 34095 ft | 488 kts | 122° |
| 2026-05-08 21:59 | 30.42551 | 41.99226 | 34091 ft | 487 kts | 122° |
| 2026-05-08 21:59 | 30.39036 | 42.05919 | 34091 ft | 486 kts | 122° |
| 2026-05-08 22:00 | 30.35520 | 42.12602 | 34085 ft | 485 kts | 122° |
| 2026-05-08 22:00 | 30.32014 | 42.19259 | 34081 ft | 485 kts | 122° |
| 2026-05-08 22:01 | 30.28528 | 42.25869 | 34089 ft | 484 kts | 123° |
| 2026-05-08 22:01 | 30.25024 | 42.32500 | 34084 ft | 483 kts | 123° |
| 2026-05-08 22:02 | 30.21517 | 42.39127 | 34081 ft | 482 kts | 123° |
| 2026-05-08 22:02 | 30.18009 | 42.45739 | 34102 ft | 482 kts | 123° |
| 2026-05-08 22:02 | 30.16256 | 42.49038 | 34328 ft | 482 kts | 123° |
| 2026-05-08 22:03 | 30.14504 | 42.52334 | 34560 ft | 481 kts | 124° |
| 2026-05-08 22:03 | 30.12753 | 42.55621 | 34788 ft | 480 kts | 124° |
| 2026-05-08 22:03 | 30.11026 | 42.58863 | 34982 ft | 481 kts | 124° |
| 2026-05-08 22:04 | 30.07518 | 42.65445 | 35065 ft | 481 kts | 124° |
| 2026-05-08 22:04 | 30.04013 | 42.72006 | 35062 ft | 480 kts | 124° |
| 2026-05-08 22:05 | 30.00505 | 42.78559 | 35059 ft | 480 kts | 124° |
| 2026-05-08 22:05 | 29.96993 | 42.85105 | 35059 ft | 480 kts | 124° |
| 2026-05-08 22:06 | 29.93503 | 42.91612 | 35062 ft | 481 kts | 124° |
| 2026-05-08 22:06 | 29.89983 | 42.98171 | 35064 ft | 481 kts | 124° |
| 2026-05-08 22:07 | 29.86464 | 43.04706 | 35063 ft | 480 kts | 125° |
| 2026-05-08 22:07 | 29.82940 | 43.11227 | 35075 ft | 478 kts | 125° |
| 2026-05-08 22:08 | 29.79437 | 43.17703 | 35073 ft | 477 kts | 125° |
| 2026-05-08 22:08 | 29.75957 | 43.24142 | 35066 ft | 476 kts | 126° |
| 2026-05-08 22:09 | 29.72468 | 43.30591 | 35081 ft | 474 kts | 126° |
| 2026-05-08 22:09 | 29.68974 | 43.37020 | 35078 ft | 473 kts | 126° |
| 2026-05-08 22:10 | 29.65487 | 43.43435 | 35062 ft | 472 kts | 127° |
| 2026-05-08 22:10 | 29.62007 | 43.49821 | 35072 ft | 470 kts | 127° |
| 2026-05-08 22:11 | 29.58395 | 43.56062 | 35078 ft | 468 kts | 130° |
| 2026-05-08 22:11 | 29.54680 | 43.62116 | 35081 ft | 466 kts | 130° |
| 2026-05-08 22:12 | 29.50943 | 43.68194 | 35065 ft | 466 kts | 131° |
| 2026-05-08 22:12 | 29.47255 | 43.74283 | 35067 ft | 465 kts | 130° |
| 2026-05-08 22:13 | 29.43586 | 43.80384 | 35067 ft | 465 kts | 130° |
| 2026-05-08 22:13 | 29.39932 | 43.86446 | 35060 ft | 464 kts | 131° |
| 2026-05-08 22:14 | 29.36248 | 43.92527 | 35056 ft | 464 kts | 131° |
| 2026-05-08 22:14 | 29.32559 | 43.98608 | 35058 ft | 464 kts | 131° |
| 2026-05-08 22:15 | 29.28867 | 44.04669 | 35049 ft | 464 kts | 133° |
| 2026-05-08 22:15 | 29.25194 | 44.10683 | 35041 ft | 463 kts | 132° |
| 2026-05-08 22:16 | 29.21508 | 44.16730 | 35036 ft | 463 kts | 133° |
| 2026-05-08 22:16 | 29.17820 | 44.22779 | 35021 ft | 464 kts | 133° |
| 2026-05-08 22:17 | 29.14129 | 44.28826 | 35041 ft | 463 kts | 134° |
| 2026-05-08 22:17 | 29.10439 | 44.34851 | 35054 ft | 462 kts | 134° |
| 2026-05-08 22:18 | 29.06756 | 44.40851 | 35056 ft | 462 kts | 134° |
| 2026-05-08 22:18 | 29.03095 | 44.46816 | 35053 ft | 461 kts | 135° |
| 2026-05-08 22:19 | 28.99414 | 44.52810 | 35061 ft | 460 kts | 135° |
| 2026-05-08 22:19 | 28.95733 | 44.58788 | 35063 ft | 460 kts | 135° |
| 2026-05-08 22:20 | 28.92052 | 44.64748 | 35049 ft | 459 kts | 135° |
| 2026-05-08 22:20 | 28.88408 | 44.70723 | 35053 ft | 463 kts | 131° |
| 2026-05-08 22:20 | 28.86952 | 44.73999 | 35053 ft | 477 kts | 121° |
| 2026-05-08 22:21 | 28.85966 | 44.77667 | 35049 ft | 490 kts | 110° |
| 2026-05-08 22:21 | 28.85521 | 44.81596 | 34844 ft | 509 kts | 102° |
| 2026-05-08 22:21 | 28.85271 | 44.85650 | 34613 ft | 515 kts | 102° |
| 2026-05-08 22:21 | 28.85027 | 44.89717 | 34209 ft | 514 kts | 102° |
| 2026-05-08 22:22 | 28.84788 | 44.93770 | 33859 ft | 507 kts | 102° |
| 2026-05-08 22:22 | 28.84553 | 44.97739 | 33581 ft | 498 kts | 102° |
| 2026-05-08 22:22 | 28.84312 | 45.01670 | 33286 ft | 497 kts | 102° |
| 2026-05-08 22:22 | 28.84051 | 45.05590 | 33034 ft | 508 kts | 102° |
| 2026-05-08 22:23 | 28.83772 | 45.09623 | 32769 ft | 512 kts | 102° |
| 2026-05-08 22:23 | 28.83498 | 45.13671 | 32489 ft | 509 kts | 102° |
| 2026-05-08 22:23 | 28.83238 | 45.17673 | 32249 ft | 507 kts | 101° |
| 2026-05-08 22:23 | 28.82979 | 45.21674 | 31957 ft | 504 kts | 101° |
| 2026-05-08 22:24 | 28.82725 | 45.25634 | 31708 ft | 498 kts | 101° |
| 2026-05-08 22:24 | 28.82469 | 45.29571 | 31478 ft | 499 kts | 101° |
| 2026-05-08 22:24 | 28.82205 | 45.33511 | 31210 ft | 496 kts | 101° |
| 2026-05-08 22:24 | 28.81939 | 45.37419 | 30983 ft | 496 kts | 101° |
| 2026-05-08 22:25 | 28.81661 | 45.41380 | 30720 ft | 508 kts | 101° |
| 2026-05-08 22:25 | 28.81380 | 45.45377 | 30491 ft | 514 kts | 101° |
| 2026-05-08 22:25 | 28.81102 | 45.49442 | 30264 ft | 516 kts | 101° |
| 2026-05-08 22:25 | 28.80829 | 45.53508 | 30006 ft | 511 kts | 100° |
| 2026-05-08 22:26 | 28.80563 | 45.57523 | 29717 ft | 503 kts | 100° |
| 2026-05-08 22:26 | 28.80302 | 45.61471 | 29435 ft | 497 kts | 100° |
| 2026-05-08 22:26 | 28.80040 | 45.65384 | 29161 ft | 494 kts | 100° |
| 2026-05-08 22:26 | 28.79770 | 45.69280 | 28887 ft | 492 kts | 100° |
| 2026-05-08 22:27 | 28.79495 | 45.73156 | 28620 ft | 490 kts | 100° |
| 2026-05-08 22:27 | 28.79221 | 45.77020 | 28355 ft | 488 kts | 100° |
| 2026-05-08 22:27 | 28.78950 | 45.80866 | 28073 ft | 485 kts | 100° |
| 2026-05-08 22:27 | 28.78686 | 45.84633 | 27821 ft | 483 kts | 100° |
| 2026-05-08 22:28 | 28.78420 | 45.88450 | 27563 ft | 481 kts | 100° |
| 2026-05-08 22:28 | 28.78154 | 45.92245 | 27309 ft | 480 kts | 100° |
| 2026-05-08 22:28 | 28.77888 | 45.96026 | 27057 ft | 478 kts | 99° |
| 2026-05-08 22:28 | 28.77623 | 45.99799 | 26796 ft | 477 kts | 100° |
| 2026-05-08 22:29 | 28.77355 | 46.03569 | 26547 ft | 476 kts | 99° |
| 2026-05-08 22:29 | 28.77086 | 46.07324 | 26302 ft | 475 kts | 99° |
| 2026-05-08 22:29 | 28.76816 | 46.11075 | 26059 ft | 474 kts | 99° |
| 2026-05-08 22:29 | 28.76544 | 46.14811 | 25818 ft | 473 kts | 99° |
| 2026-05-08 22:30 | 28.76273 | 46.18536 | 25582 ft | 472 kts | 99° |
| 2026-05-08 22:30 | 28.76008 | 46.22214 | 25373 ft | 471 kts | 99° |
| 2026-05-08 22:30 | 28.75740 | 46.25932 | 25145 ft | 471 kts | 99° |
| 2026-05-08 22:30 | 28.75467 | 46.29652 | 24935 ft | 471 kts | 99° |
| 2026-05-08 22:31 | 28.75192 | 46.33369 | 24723 ft | 470 kts | 99° |
| 2026-05-08 22:31 | 28.74862 | 46.37067 | 24516 ft | 470 kts | 101° |
| 2026-05-08 22:31 | 28.74399 | 46.40808 | 24315 ft | 486 kts | 103° |
| 2026-05-08 22:31 | 28.73839 | 46.44666 | 24111 ft | 501 kts | 104° |
| 2026-05-08 22:32 | 28.73234 | 46.48628 | 23912 ft | 513 kts | 103° |
| 2026-05-08 22:32 | 28.72640 | 46.52598 | 23703 ft | 516 kts | 103° |
| 2026-05-08 22:32 | 28.72065 | 46.56644 | 23491 ft | 517 kts | 102° |
| 2026-05-08 22:32 | 28.71521 | 46.60678 | 23247 ft | 516 kts | 102° |
| 2026-05-08 22:33 | 28.70995 | 46.64719 | 22999 ft | 514 kts | 102° |
| 2026-05-08 22:33 | 28.70481 | 46.68727 | 22757 ft | 510 kts | 102° |
| 2026-05-08 22:33 | 28.69965 | 46.72713 | 22523 ft | 507 kts | 102° |
| 2026-05-08 22:33 | 28.69442 | 46.76678 | 22291 ft | 505 kts | 102° |
| 2026-05-08 22:34 | 28.68913 | 46.80630 | 22060 ft | 503 kts | 102° |
| 2026-05-08 22:34 | 28.68381 | 46.84547 | 21827 ft | 501 kts | 102° |
| 2026-05-08 22:34 | 28.67847 | 46.88465 | 21601 ft | 499 kts | 102° |
| 2026-05-08 22:34 | 28.67318 | 46.92355 | 21374 ft | 497 kts | 102° |
| 2026-05-08 22:35 | 28.66804 | 46.96165 | 20823 ft | 490 kts | 102° |
| 2026-05-08 22:35 | 28.66291 | 46.99950 | 20495 ft | 489 kts | 101° |
| 2026-05-08 22:35 | 28.65767 | 47.03766 | 20133 ft | 487 kts | 101° |
| 2026-05-08 22:35 | 28.65245 | 47.07554 | 19750 ft | 483 kts | 101° |
| 2026-05-08 22:36 | 28.64731 | 47.11317 | 19402 ft | 479 kts | 101° |
| 2026-05-08 22:36 | 28.64223 | 47.15049 | 19059 ft | 476 kts | 101° |
| 2026-05-08 22:36 | 28.63719 | 47.18752 | 18714 ft | 472 kts | 101° |
| 2026-05-08 22:36 | 28.63218 | 47.22428 | 18363 ft | 468 kts | 101° |
| 2026-05-08 22:37 | 28.62717 | 47.26075 | 17985 ft | 465 kts | 101° |
| 2026-05-08 22:37 | 28.62214 | 47.29704 | 17593 ft | 462 kts | 101° |
| 2026-05-08 22:37 | 28.61720 | 47.33258 | 17205 ft | 460 kts | 101° |
| 2026-05-08 22:37 | 28.61221 | 47.36837 | 16826 ft | 457 kts | 100° |
| 2026-05-08 22:38 | 28.60724 | 47.40402 | 16448 ft | 455 kts | 100° |
| 2026-05-08 22:38 | 28.60228 | 47.43947 | 16077 ft | 452 kts | 100° |
| 2026-05-08 22:38 | 28.59736 | 47.47471 | 15700 ft | 447 kts | 100° |
| 2026-05-08 22:38 | 28.59254 | 47.50920 | 15331 ft | 436 kts | 100° |
| 2026-05-08 22:39 | 28.58788 | 47.54244 | 14965 ft | 412 kts | 100° |
| 2026-05-08 22:39 | 28.58355 | 47.57343 | 14716 ft | 381 kts | 100° |
| 2026-05-08 22:39 | 28.57960 | 47.60185 | 14481 ft | 356 kts | 100° |
| 2026-05-08 22:39 | 28.57582 | 47.62873 | 14157 ft | 336 kts | 100° |
| 2026-05-08 22:40 | 28.57230 | 47.65470 | 13527 ft | 329 kts | 96° |
| 2026-05-08 22:40 | 28.57201 | 47.68049 | 12785 ft | 325 kts | 89° |
| 2026-05-08 22:40 | 28.57268 | 47.70608 | 12058 ft | 322 kts | 89° |
| 2026-05-08 22:40 | 28.57331 | 47.73155 | 11620 ft | 321 kts | 89° |
| 2026-05-08 22:41 | 28.57389 | 47.75672 | 11279 ft | 319 kts | 89° |
| 2026-05-08 22:41 | 28.57445 | 47.78153 | 10952 ft | 317 kts | 89° |
| 2026-05-08 22:41 | 28.57498 | 47.80652 | 10606 ft | 315 kts | 89° |
| 2026-05-08 22:41 | 28.57552 | 47.83127 | 10292 ft | 312 kts | 89° |
| 2026-05-08 22:42 | 28.57605 | 47.85587 | 10028 ft | 309 kts | 89° |
| 2026-05-08 22:42 | 28.57658 | 47.88035 | 9995 ft | 310 kts | 89° |
| 2026-05-08 22:42 | 28.57711 | 47.90486 | 9982 ft | 310 kts | 89° |
| 2026-05-08 22:42 | 28.57765 | 47.92929 | 9699 ft | 306 kts | 89° |
| 2026-05-08 22:43 | 28.57799 | 47.94535 | 9392 ft | 307 kts | 89° |
| 2026-05-08 22:43 | 28.58001 | 47.96965 | 8872 ft | 311 kts | 77° |
| 2026-05-08 22:43 | 28.58679 | 47.99283 | 8477 ft | 309 kts | 64° |
| 2026-05-08 22:43 | 28.59769 | 48.01363 | 8121 ft | 305 kts | 50° |
| 2026-05-08 22:44 | 28.61064 | 48.03259 | 7759 ft | 303 kts | 50° |
| 2026-05-08 22:44 | 28.62346 | 48.05159 | 7405 ft | 302 kts | 50° |
| 2026-05-08 22:44 | 28.63610 | 48.07058 | 7043 ft | 300 kts | 50° |
| 2026-05-08 22:44 | 28.64868 | 48.08954 | 6690 ft | 298 kts | 50° |
| 2026-05-08 22:45 | 28.66069 | 48.10768 | 6335 ft | 284 kts | 50° |
| 2026-05-08 22:45 | 28.67241 | 48.12522 | 6008 ft | 274 kts | 47° |
| 2026-05-08 22:45 | 28.68605 | 48.13976 | 5639 ft | 265 kts | 31° |
| 2026-05-08 22:45 | 28.70209 | 48.14893 | 5098 ft | 254 kts | 14° |
| 2026-05-08 22:46 | 28.71874 | 48.15243 | 4646 ft | 238 kts | 0° |
| 2026-05-08 22:46 | 28.73498 | 48.15124 | 4061 ft | 231 kts | 351° |
| 2026-05-08 22:46 | 28.75076 | 48.14880 | 3449 ft | 227 kts | 352° |
| 2026-05-08 22:46 | 28.76629 | 48.14650 | 3042 ft | 223 kts | 353° |
| 2026-05-08 22:47 | 28.78165 | 48.14423 | 2957 ft | 222 kts | 353° |
| 2026-05-08 22:47 | 28.79693 | 48.14195 | 2985 ft | 220 kts | 353° |
| 2026-05-08 22:47 | 28.81205 | 48.13970 | 2982 ft | 223 kts | 353° |
| 2026-05-08 22:47 | 28.82735 | 48.13741 | 2992 ft | 223 kts | 353° |
| 2026-05-08 22:48 | 28.84279 | 48.13510 | 2981 ft | 224 kts | 353° |
| 2026-05-08 22:48 | 28.85811 | 48.13282 | 2989 ft | 222 kts | 353° |
| 2026-05-08 22:48 | 28.87349 | 48.13052 | 2984 ft | 224 kts | 353° |
| 2026-05-08 22:48 | 28.88882 | 48.12821 | 2984 ft | 222 kts | 353° |
| 2026-05-08 22:49 | 28.90419 | 48.12589 | 2986 ft | 224 kts | 353° |
| 2026-05-08 22:49 | 28.93514 | 48.12087 | 2987 ft | 227 kts | 347° |
| 2026-05-08 22:49 | 28.94979 | 48.11533 | 2987 ft | 222 kts | 339° |
| 2026-05-08 22:50 | 28.96363 | 48.10829 | 2997 ft | 216 kts | 337° |
| 2026-05-08 22:50 | 28.97726 | 48.10106 | 2990 ft | 216 kts | 337° |
| 2026-05-08 22:50 | 28.99081 | 48.09388 | 3005 ft | 212 kts | 337° |
| 2026-05-08 22:50 | 29.00350 | 48.08716 | 3001 ft | 192 kts | 337° |
| 2026-05-08 22:51 | 29.01533 | 48.08091 | 2990 ft | 186 kts | 337° |
| 2026-05-08 22:51 | 29.02697 | 48.07476 | 2998 ft | 183 kts | 337° |
| 2026-05-08 22:51 | 29.03830 | 48.06876 | 2732 ft | 178 kts | 337° |
| 2026-05-08 22:51 | 29.04948 | 48.06285 | 2293 ft | 184 kts | 338° |
| 2026-05-08 22:52 | 29.06128 | 48.05661 | 2295 ft | 191 kts | 336° |
| 2026-05-08 22:52 | 29.07349 | 48.05015 | 2300 ft | 194 kts | 336° |
| 2026-05-08 22:52 | 29.08578 | 48.04363 | 2302 ft | 195 kts | 336° |
| 2026-05-08 22:52 | 29.09804 | 48.03714 | 2298 ft | 188 kts | 337° |
| 2026-05-08 22:53 | 29.10905 | 48.03129 | 2262 ft | 165 kts | 337° |
| 2026-05-08 22:53 | 29.11901 | 48.02601 | 2149 ft | 151 kts | 338° |
| 2026-05-08 22:53 | 29.12834 | 48.02106 | 1964 ft | 147 kts | 339° |
| 2026-05-08 22:53 | 29.13752 | 48.01620 | 1788 ft | 144 kts | 339° |
| 2026-05-08 22:54 | 29.14643 | 48.01148 | 1610 ft | 142 kts | 339° |
| 2026-05-08 22:54 | 29.15545 | 48.00670 | 1417 ft | 143 kts | 339° |
| 2026-05-08 22:54 | 29.16440 | 48.00196 | 1236 ft | 139 kts | 336° |
| 2026-05-08 22:54 | 29.17328 | 47.99724 | 1064 ft | 147 kts | 336° |
| 2026-05-08 22:55 | 29.18251 | 47.99232 | 907 ft | 144 kts | 337° |
| 2026-05-08 22:55 | 29.19159 | 47.98762 | 672 ft | 141 kts | 337° |
| 2026-05-08 22:55 | 29.20049 | 47.98300 | 520 ft | 141 kts | 336° |
| 2026-05-08 22:55 | 29.20924 | 47.97824 | 325 ft | 139 kts | 337° |
| 2026-05-08 22:56 | 29.21792 | 47.97366 | 217 ft | 131 kts | 338° |
| 2026-05-08 22:56 | 29.22478 | 47.97011 | 211 ft | 84 kts | 335° |
| 2026-05-08 22:56 | 29.22903 | 47.96788 | 220 ft | 59 kts | 336° |
| 2026-05-08 22:56 | 29.23227 | 47.96613 | 219 ft | 36 kts | 338° |
| 2026-05-08 22:57 | 29.23433 | 47.96636 | 214 ft | 12 kts | 20° |
| 2026-05-08 22:57 | 29.23437 | 47.96638 | 214 ft | 0 kts | 20° |
| 2026-05-08 22:58 | 29.23447 | 47.96642 | 216 ft | 6 kts | 20° |
| 2026-05-08 22:58 | 29.23521 | 47.96664 | 218 ft | 16 kts | 0° |
| 2026-05-08 22:58 | 29.23644 | 47.96621 | 209 ft | 12 kts | 341° |
| 2026-05-08 22:58 | 29.23667 | 47.96667 | 209 ft | 8 kts | 83° |
| 2026-05-08 22:59 | 29.23688 | 47.96749 | 201 ft | 14 kts | 70° |